sensor_id;sensor_type;location;lat;lon;timestamp;P1;durP1;ratioP1;P2;durP2;ratioP2
66402;SDS011;53212;52.112;5.144;2023-02-15T00:01:57;29.90;;;24.10;;
66402;SDS011;53212;52.112;5.144;2023-02-15T00:04:24;26.90;;;22.90;;
66402;SDS011;53212;52.112;5.144;2023-02-15T00:07:10;30.70;;;22.70;;
66402;SDS011;53212;52.112;5.144;2023-02-15T00:09:36;28.50;;;23.30;;
66402;SDS011;53212;52.112;5.144;2023-02-15T00:12:02;29.30;;;22.80;;
66402;SDS011;53212;52.112;5.144;2023-02-15T00:14:27;27.60;;;22.90;;
66402;SDS011;53212;52.112;5.144;2023-02-15T00:16:53;29.80;;;24.80;;
66402;SDS011;53212;52.112;5.144;2023-02-15T00:19:20;30.60;;;23.00;;
66402;SDS011;53212;52.112;5.144;2023-02-15T00:21:47;31.50;;;24.80;;
66402;SDS011;53212;52.112;5.144;2023-02-15T00:24:15;29.50;;;23.80;;
66402;SDS011;53212;52.112;5.144;2023-02-15T00:26:42;30.40;;;24.30;;
66402;SDS011;53212;52.112;5.144;2023-02-15T00:29:09;26.00;;;21.70;;
66402;SDS011;53212;52.112;5.144;2023-02-15T00:31:36;25.80;;;21.50;;
66402;SDS011;53212;52.112;5.144;2023-02-15T00:34:14;27.00;;;22.00;;
66402;SDS011;53212;52.112;5.144;2023-02-15T00:36:43;31.20;;;22.80;;
66402;SDS011;53212;52.112;5.144;2023-02-15T00:39:09;26.60;;;22.80;;
66402;SDS011;53212;52.112;5.144;2023-02-15T00:41:35;31.00;;;22.60;;
66402;SDS011;53212;52.112;5.144;2023-02-15T00:44:01;28.60;;;22.90;;
66402;SDS011;53212;52.112;5.144;2023-02-15T00:46:27;29.30;;;22.60;;
66402;SDS011;53212;52.112;5.144;2023-02-15T00:48:52;30.40;;;22.50;;
66402;SDS011;53212;52.112;5.144;2023-02-15T00:51:18;25.40;;;22.10;;
66402;SDS011;53212;52.112;5.144;2023-02-15T00:53:45;28.30;;;22.00;;
66402;SDS011;53212;52.112;5.144;2023-02-15T00:56:11;25.40;;;20.90;;
66402;SDS011;53212;52.112;5.144;2023-02-15T00:58:36;30.40;;;23.20;;
66402;SDS011;53212;52.112;5.144;2023-02-15T01:01:04;27.50;;;22.40;;
66402;SDS011;53212;52.112;5.144;2023-02-15T01:03:32;25.50;;;21.00;;
66402;SDS011;53212;52.112;5.144;2023-02-15T01:05:58;27.40;;;21.20;;
66402;SDS011;53212;52.112;5.144;2023-02-15T01:08:24;25.40;;;20.40;;
66402;SDS011;53212;52.112;5.144;2023-02-15T01:10:49;27.30;;;20.90;;
66402;SDS011;53212;52.112;5.144;2023-02-15T01:13:15;26.30;;;20.90;;
66402;SDS011;53212;52.112;5.144;2023-02-15T01:15:42;27.20;;;21.80;;
66402;SDS011;53212;52.112;5.144;2023-02-15T01:18:09;28.60;;;22.20;;
66402;SDS011;53212;52.112;5.144;2023-02-15T01:20:36;25.20;;;22.10;;
66402;SDS011;53212;52.112;5.144;2023-02-15T01:23:05;27.80;;;23.20;;
66402;SDS011;53212;52.112;5.144;2023-02-15T01:25:33;32.00;;;22.50;;
66402;SDS011;53212;52.112;5.144;2023-02-15T01:27:59;26.20;;;20.50;;
66402;SDS011;53212;52.112;5.144;2023-02-15T01:30:27;26.70;;;20.90;;
66402;SDS011;53212;52.112;5.144;2023-02-15T01:32:53;27.60;;;22.40;;
66402;SDS011;53212;52.112;5.144;2023-02-15T01:35:18;28.30;;;22.60;;
66402;SDS011;53212;52.112;5.144;2023-02-15T01:37:44;28.20;;;22.70;;
66402;SDS011;53212;52.112;5.144;2023-02-15T01:40:15;28.10;;;23.10;;
66402;SDS011;53212;52.112;5.144;2023-02-15T01:42:42;29.60;;;22.40;;
66402;SDS011;53212;52.112;5.144;2023-02-15T01:45:30;24.70;;;20.70;;
66402;SDS011;53212;52.112;5.144;2023-02-15T01:50:41;28.70;;;21.30;;
66402;SDS011;53212;52.112;5.144;2023-02-15T01:53:18;28.10;;;23.70;;
66402;SDS011;53212;52.112;5.144;2023-02-15T01:56:02;32.90;;;25.90;;
66402;SDS011;53212;52.112;5.144;2023-02-15T01:58:32;30.30;;;25.00;;
66402;SDS011;53212;52.112;5.144;2023-02-15T02:01:00;31.80;;;25.00;;
66402;SDS011;53212;52.112;5.144;2023-02-15T02:06:26;27.80;;;23.60;;
66402;SDS011;53212;52.112;5.144;2023-02-15T02:08:53;34.00;;;24.20;;
66402;SDS011;53212;52.112;5.144;2023-02-15T02:11:19;27.60;;;22.80;;
66402;SDS011;53212;52.112;5.144;2023-02-15T02:13:45;29.30;;;22.80;;
66402;SDS011;53212;52.112;5.144;2023-02-15T02:16:47;26.00;;;21.70;;
66402;SDS011;53212;52.112;5.144;2023-02-15T02:27:48;31.50;;;24.00;;
66402;SDS011;53212;52.112;5.144;2023-02-15T02:33:21;26.80;;;22.80;;
66402;SDS011;53212;52.112;5.144;2023-02-15T02:41:17;26.90;;;21.90;;
66402;SDS011;53212;52.112;5.144;2023-02-15T02:44:04;28.30;;;21.60;;
66402;SDS011;53212;52.112;5.144;2023-02-15T02:49:42;30.70;;;23.30;;
66402;SDS011;53212;52.112;5.144;2023-02-15T02:52:41;29.10;;;22.00;;
66402;SDS011;53212;52.112;5.144;2023-02-15T03:00:48;28.20;;;23.30;;
66402;SDS011;53212;52.112;5.144;2023-02-15T03:03:23;27.80;;;23.90;;
66402;SDS011;53212;52.112;5.144;2023-02-15T03:05:55;31.90;;;22.90;;
66402;SDS011;53212;52.112;5.144;2023-02-15T03:08:25;32.10;;;21.90;;
66402;SDS011;53212;52.112;5.144;2023-02-15T03:10:56;30.10;;;22.70;;
66402;SDS011;53212;52.112;5.144;2023-02-15T03:13:25;30.60;;;23.80;;
66402;SDS011;53212;52.112;5.144;2023-02-15T03:15:51;28.80;;;21.70;;
66402;SDS011;53212;52.112;5.144;2023-02-15T03:18:38;25.60;;;20.40;;
66402;SDS011;53212;52.112;5.144;2023-02-15T03:21:08;31.60;;;23.50;;
66402;SDS011;53212;52.112;5.144;2023-02-15T03:23:48;33.40;;;24.80;;
66402;SDS011;53212;52.112;5.144;2023-02-15T03:26:17;31.30;;;25.20;;
66402;SDS011;53212;52.112;5.144;2023-02-15T03:28:45;33.70;;;24.50;;
66402;SDS011;53212;52.112;5.144;2023-02-15T03:31:13;30.50;;;23.70;;
66402;SDS011;53212;52.112;5.144;2023-02-15T03:33:50;33.00;;;23.60;;
66402;SDS011;53212;52.112;5.144;2023-02-15T03:39:42;30.40;;;24.40;;
66402;SDS011;53212;52.112;5.144;2023-02-15T03:42:17;30.00;;;22.50;;
66402;SDS011;53212;52.112;5.144;2023-02-15T03:45:05;29.10;;;22.80;;
66402;SDS011;53212;52.112;5.144;2023-02-15T03:47:37;32.40;;;24.80;;
66402;SDS011;53212;52.112;5.144;2023-02-15T03:50:21;30.60;;;23.70;;
66402;SDS011;53212;52.112;5.144;2023-02-15T03:53:11;25.90;;;22.20;;
66402;SDS011;53212;52.112;5.144;2023-02-15T03:55:41;29.00;;;21.40;;
66402;SDS011;53212;52.112;5.144;2023-02-15T03:58:07;27.50;;;22.20;;
66402;SDS011;53212;52.112;5.144;2023-02-15T04:01:00;30.00;;;21.20;;
66402;SDS011;53212;52.112;5.144;2023-02-15T04:04:03;31.30;;;25.20;;
66402;SDS011;53212;52.112;5.144;2023-02-15T04:06:36;34.20;;;24.40;;
66402;SDS011;53212;52.112;5.144;2023-02-15T04:09:01;29.20;;;24.50;;
66402;SDS011;53212;52.112;5.144;2023-02-15T04:11:45;30.40;;;22.70;;
66402;SDS011;53212;52.112;5.144;2023-02-15T04:14:11;30.00;;;23.70;;
66402;SDS011;53212;52.112;5.144;2023-02-15T04:16:55;31.20;;;24.20;;
66402;SDS011;53212;52.112;5.144;2023-02-15T04:19:20;29.00;;;22.30;;
66402;SDS011;53212;52.112;5.144;2023-02-15T04:22:04;30.80;;;23.60;;
66402;SDS011;53212;52.112;5.144;2023-02-15T04:24:48;30.10;;;23.80;;
66402;SDS011;53212;52.112;5.144;2023-02-15T04:27:32;31.00;;;23.10;;
66402;SDS011;53212;52.112;5.144;2023-02-15T04:29:58;28.60;;;23.00;;
66402;SDS011;53212;52.112;5.144;2023-02-15T04:32:23;31.90;;;22.60;;
66402;SDS011;53212;52.112;5.144;2023-02-15T04:34:49;27.40;;;22.40;;
66402;SDS011;53212;52.112;5.144;2023-02-15T04:37:14;29.80;;;21.50;;
66402;SDS011;53212;52.112;5.144;2023-02-15T04:39:40;30.60;;;22.20;;
66402;SDS011;53212;52.112;5.144;2023-02-15T04:42:05;30.00;;;23.70;;
66402;SDS011;53212;52.112;5.144;2023-02-15T04:44:30;31.40;;;23.20;;
66402;SDS011;53212;52.112;5.144;2023-02-15T04:46:56;27.30;;;22.50;;
66402;SDS011;53212;52.112;5.144;2023-02-15T04:49:21;27.30;;;21.90;;
66402;SDS011;53212;52.112;5.144;2023-02-15T04:51:47;31.70;;;22.00;;
66402;SDS011;53212;52.112;5.144;2023-02-15T04:54:12;30.60;;;23.30;;
66402;SDS011;53212;52.112;5.144;2023-02-15T04:56:39;29.20;;;23.30;;
66402;SDS011;53212;52.112;5.144;2023-02-15T04:59:04;34.00;;;21.80;;
66402;SDS011;53212;52.112;5.144;2023-02-15T05:01:30;28.30;;;22.00;;
66402;SDS011;53212;52.112;5.144;2023-02-15T05:03:56;29.60;;;22.50;;
66402;SDS011;53212;52.112;5.144;2023-02-15T05:06:21;31.00;;;22.30;;
66402;SDS011;53212;52.112;5.144;2023-02-15T05:08:47;29.80;;;23.10;;
66402;SDS011;53212;52.112;5.144;2023-02-15T05:11:13;30.00;;;23.10;;
66402;SDS011;53212;52.112;5.144;2023-02-15T05:13:38;28.00;;;22.50;;
66402;SDS011;53212;52.112;5.144;2023-02-15T05:16:04;30.20;;;22.10;;
66402;SDS011;53212;52.112;5.144;2023-02-15T05:18:29;30.50;;;22.90;;
66402;SDS011;53212;52.112;5.144;2023-02-15T05:20:55;30.50;;;22.10;;
66402;SDS011;53212;52.112;5.144;2023-02-15T05:23:20;27.10;;;22.50;;
66402;SDS011;53212;52.112;5.144;2023-02-15T05:25:47;28.00;;;21.30;;
66402;SDS011;53212;52.112;5.144;2023-02-15T05:28:32;28.50;;;21.10;;
66402;SDS011;53212;52.112;5.144;2023-02-15T05:31:11;28.40;;;21.60;;
66402;SDS011;53212;52.112;5.144;2023-02-15T05:33:39;28.10;;;21.80;;
66402;SDS011;53212;52.112;5.144;2023-02-15T05:36:06;29.10;;;22.20;;
66402;SDS011;53212;52.112;5.144;2023-02-15T05:38:32;29.50;;;22.50;;
66402;SDS011;53212;52.112;5.144;2023-02-15T05:40:58;28.70;;;22.70;;
66402;SDS011;53212;52.112;5.144;2023-02-15T05:43:24;28.80;;;22.60;;
66402;SDS011;53212;52.112;5.144;2023-02-15T05:45:52;27.00;;;21.60;;
66402;SDS011;53212;52.112;5.144;2023-02-15T05:48:20;31.00;;;23.00;;
66402;SDS011;53212;52.112;5.144;2023-02-15T05:51:02;29.10;;;21.20;;
66402;SDS011;53212;52.112;5.144;2023-02-15T05:53:41;29.00;;;21.30;;
66402;SDS011;53212;52.112;5.144;2023-02-15T05:56:09;26.40;;;22.00;;
66402;SDS011;53212;52.112;5.144;2023-02-15T05:58:37;30.40;;;21.50;;
66402;SDS011;53212;52.112;5.144;2023-02-15T06:01:12;31.00;;;22.00;;
66402;SDS011;53212;52.112;5.144;2023-02-15T06:03:43;28.70;;;20.30;;
66402;SDS011;53212;52.112;5.144;2023-02-15T06:06:10;30.40;;;22.10;;
66402;SDS011;53212;52.112;5.144;2023-02-15T06:08:36;28.60;;;21.70;;
66402;SDS011;53212;52.112;5.144;2023-02-15T06:11:03;29.40;;;21.10;;
66402;SDS011;53212;52.112;5.144;2023-02-15T06:13:30;29.30;;;21.50;;
66402;SDS011;53212;52.112;5.144;2023-02-15T06:15:56;28.40;;;21.80;;
66402;SDS011;53212;52.112;5.144;2023-02-15T06:18:21;27.60;;;20.80;;
66402;SDS011;53212;52.112;5.144;2023-02-15T06:20:47;31.40;;;20.10;;
66402;SDS011;53212;52.112;5.144;2023-02-15T06:23:13;28.60;;;21.20;;
66402;SDS011;53212;52.112;5.144;2023-02-15T06:25:39;25.60;;;21.60;;
66402;SDS011;53212;52.112;5.144;2023-02-15T06:28:04;26.60;;;19.30;;
66402;SDS011;53212;52.112;5.144;2023-02-15T06:30:30;27.60;;;21.20;;
66402;SDS011;53212;52.112;5.144;2023-02-15T06:32:55;28.40;;;20.70;;
66402;SDS011;53212;52.112;5.144;2023-02-15T06:35:21;26.70;;;21.10;;
66402;SDS011;53212;52.112;5.144;2023-02-15T06:37:47;28.30;;;20.30;;
66402;SDS011;53212;52.112;5.144;2023-02-15T06:40:13;31.20;;;20.80;;
66402;SDS011;53212;52.112;5.144;2023-02-15T06:42:39;29.10;;;21.30;;
66402;SDS011;53212;52.112;5.144;2023-02-15T06:45:06;29.50;;;23.10;;
66402;SDS011;53212;52.112;5.144;2023-02-15T06:47:33;28.30;;;21.60;;
66402;SDS011;53212;52.112;5.144;2023-02-15T06:49:58;28.90;;;21.80;;
66402;SDS011;53212;52.112;5.144;2023-02-15T06:52:24;26.70;;;21.50;;
66402;SDS011;53212;52.112;5.144;2023-02-15T06:54:50;30.00;;;21.80;;
66402;SDS011;53212;52.112;5.144;2023-02-15T06:57:15;29.10;;;21.80;;
66402;SDS011;53212;52.112;5.144;2023-02-15T06:59:41;28.20;;;22.50;;
66402;SDS011;53212;52.112;5.144;2023-02-15T07:02:08;32.80;;;22.30;;
66402;SDS011;53212;52.112;5.144;2023-02-15T07:04:35;28.40;;;21.20;;
66402;SDS011;53212;52.112;5.144;2023-02-15T07:07:01;28.10;;;21.90;;
66402;SDS011;53212;52.112;5.144;2023-02-15T07:09:26;27.20;;;20.30;;
66402;SDS011;53212;52.112;5.144;2023-02-15T07:11:52;31.30;;;22.20;;
66402;SDS011;53212;52.112;5.144;2023-02-15T07:14:36;27.20;;;21.90;;
66402;SDS011;53212;52.112;5.144;2023-02-15T07:17:01;29.50;;;21.80;;
66402;SDS011;53212;52.112;5.144;2023-02-15T07:19:27;29.40;;;21.30;;
66402;SDS011;53212;52.112;5.144;2023-02-15T07:21:52;28.80;;;21.70;;
66402;SDS011;53212;52.112;5.144;2023-02-15T07:24:18;30.80;;;23.00;;
66402;SDS011;53212;52.112;5.144;2023-02-15T07:26:43;29.10;;;21.80;;
66402;SDS011;53212;52.112;5.144;2023-02-15T07:29:09;29.40;;;22.00;;
66402;SDS011;53212;52.112;5.144;2023-02-15T07:31:34;30.30;;;20.50;;
66402;SDS011;53212;52.112;5.144;2023-02-15T07:33:59;28.50;;;21.40;;
66402;SDS011;53212;52.112;5.144;2023-02-15T07:36:25;28.60;;;22.50;;
66402;SDS011;53212;52.112;5.144;2023-02-15T07:38:50;28.00;;;21.30;;
66402;SDS011;53212;52.112;5.144;2023-02-15T07:41:16;28.30;;;21.70;;
66402;SDS011;53212;52.112;5.144;2023-02-15T07:43:43;35.80;;;21.80;;
66402;SDS011;53212;52.112;5.144;2023-02-15T07:46:12;29.00;;;22.20;;
66402;SDS011;53212;52.112;5.144;2023-02-15T07:48:40;27.70;;;22.40;;
66402;SDS011;53212;52.112;5.144;2023-02-15T07:51:07;28.70;;;22.00;;
66402;SDS011;53212;52.112;5.144;2023-02-15T07:53:35;30.60;;;22.20;;
66402;SDS011;53212;52.112;5.144;2023-02-15T07:56:03;30.00;;;21.70;;
66402;SDS011;53212;52.112;5.144;2023-02-15T07:58:31;30.50;;;22.30;;
66402;SDS011;53212;52.112;5.144;2023-02-15T08:01:16;29.20;;;21.40;;
66402;SDS011;53212;52.112;5.144;2023-02-15T08:03:42;31.10;;;22.50;;
66402;SDS011;53212;52.112;5.144;2023-02-15T08:06:08;29.90;;;23.50;;
66402;SDS011;53212;52.112;5.144;2023-02-15T08:08:34;28.20;;;22.80;;
66402;SDS011;53212;52.112;5.144;2023-02-15T08:13:52;31.10;;;23.50;;
66402;SDS011;53212;52.112;5.144;2023-02-15T08:16:42;33.60;;;22.50;;
66402;SDS011;53212;52.112;5.144;2023-02-15T08:19:20;28.10;;;22.80;;
66402;SDS011;53212;52.112;5.144;2023-02-15T08:21:55;32.40;;;23.60;;
66402;SDS011;53212;52.112;5.144;2023-02-15T08:24:23;29.50;;;22.60;;
66402;SDS011;53212;52.112;5.144;2023-02-15T08:26:51;28.80;;;22.70;;
66402;SDS011;53212;52.112;5.144;2023-02-15T08:29:20;32.90;;;23.70;;
66402;SDS011;53212;52.112;5.144;2023-02-15T08:31:47;30.70;;;24.10;;
66402;SDS011;53212;52.112;5.144;2023-02-15T08:34:16;30.90;;;22.30;;
66402;SDS011;53212;52.112;5.144;2023-02-15T08:36:42;31.50;;;23.10;;
66402;SDS011;53212;52.112;5.144;2023-02-15T08:39:10;29.40;;;23.00;;
66402;SDS011;53212;52.112;5.144;2023-02-15T08:41:38;28.10;;;21.80;;
66402;SDS011;53212;52.112;5.144;2023-02-15T08:44:06;29.80;;;22.50;;
66402;SDS011;53212;52.112;5.144;2023-02-15T08:46:35;27.50;;;21.70;;
66402;SDS011;53212;52.112;5.144;2023-02-15T08:49:03;31.70;;;23.80;;
66402;SDS011;53212;52.112;5.144;2023-02-15T08:51:34;31.10;;;23.60;;
66402;SDS011;53212;52.112;5.144;2023-02-15T08:54:04;32.90;;;23.20;;
66402;SDS011;53212;52.112;5.144;2023-02-15T08:56:34;30.10;;;21.90;;
66402;SDS011;53212;52.112;5.144;2023-02-15T08:59:03;28.70;;;21.80;;
66402;SDS011;53212;52.112;5.144;2023-02-15T09:01:31;30.90;;;22.90;;
66402;SDS011;53212;52.112;5.144;2023-02-15T09:04:00;30.40;;;23.60;;
66402;SDS011;53212;52.112;5.144;2023-02-15T09:06:27;29.90;;;23.40;;
66402;SDS011;53212;52.112;5.144;2023-02-15T09:08:54;31.20;;;23.60;;
66402;SDS011;53212;52.112;5.144;2023-02-15T09:11:22;32.00;;;24.40;;
66402;SDS011;53212;52.112;5.144;2023-02-15T09:13:51;33.00;;;24.80;;
66402;SDS011;53212;52.112;5.144;2023-02-15T09:16:19;32.30;;;24.90;;
66402;SDS011;53212;52.112;5.144;2023-02-15T09:18:46;31.30;;;24.50;;
66402;SDS011;53212;52.112;5.144;2023-02-15T09:21:14;30.30;;;23.80;;
66402;SDS011;53212;52.112;5.144;2023-02-15T09:23:42;31.00;;;23.80;;
66402;SDS011;53212;52.112;5.144;2023-02-15T09:26:11;32.70;;;25.10;;
66402;SDS011;53212;52.112;5.144;2023-02-15T09:28:38;31.90;;;24.20;;
66402;SDS011;53212;52.112;5.144;2023-02-15T09:33:46;31.00;;;24.80;;
66402;SDS011;53212;52.112;5.144;2023-02-15T09:36:21;30.90;;;25.00;;
66402;SDS011;53212;52.112;5.144;2023-02-15T09:38:52;31.20;;;24.30;;
66402;SDS011;53212;52.112;5.144;2023-02-15T10:06:55;33.20;;;24.90;;
66402;SDS011;53212;52.112;5.144;2023-02-15T10:16:03;30.10;;;24.40;;
66402;SDS011;53212;52.112;5.144;2023-02-15T10:22:24;32.00;;;25.40;;
66402;SDS011;53212;52.112;5.144;2023-02-15T10:24:50;33.90;;;25.60;;
66402;SDS011;53212;52.112;5.144;2023-02-15T10:27:32;37.70;;;27.30;;
66402;SDS011;53212;52.112;5.144;2023-02-15T10:30:58;31.80;;;25.10;;
66402;SDS011;53212;52.112;5.144;2023-02-15T10:33:41;31.70;;;24.80;;
66402;SDS011;53212;52.112;5.144;2023-02-15T10:36:37;35.50;;;26.60;;
66402;SDS011;53212;52.112;5.144;2023-02-15T10:39:10;34.70;;;25.70;;
66402;SDS011;53212;52.112;5.144;2023-02-15T10:51:26;34.80;;;26.60;;
66402;SDS011;53212;52.112;5.144;2023-02-15T11:00:15;38.30;;;28.60;;
66402;SDS011;53212;52.112;5.144;2023-02-15T11:06:08;35.40;;;25.90;;
66402;SDS011;53212;52.112;5.144;2023-02-15T11:08:42;37.40;;;25.70;;
66402;SDS011;53212;52.112;5.144;2023-02-15T11:11:38;35.80;;;27.10;;
66402;SDS011;53212;52.112;5.144;2023-02-15T11:14:14;37.20;;;27.90;;
66402;SDS011;53212;52.112;5.144;2023-02-15T11:16:48;35.00;;;26.60;;
66402;SDS011;53212;52.112;5.144;2023-02-15T11:22:00;39.80;;;27.50;;
66402;SDS011;53212;52.112;5.144;2023-02-15T11:24:29;35.20;;;27.00;;
66402;SDS011;53212;52.112;5.144;2023-02-15T11:30:09;34.80;;;27.90;;
66402;SDS011;53212;52.112;5.144;2023-02-15T11:32:47;35.50;;;28.00;;
66402;SDS011;53212;52.112;5.144;2023-02-15T11:38:03;35.50;;;26.10;;
66402;SDS011;53212;52.112;5.144;2023-02-15T11:40:39;35.50;;;27.50;;
66402;SDS011;53212;52.112;5.144;2023-02-15T11:43:15;34.80;;;27.00;;
66402;SDS011;53212;52.112;5.144;2023-02-15T11:45:45;38.70;;;28.00;;
66402;SDS011;53212;52.112;5.144;2023-02-15T11:48:13;36.60;;;27.70;;
66402;SDS011;53212;52.112;5.144;2023-02-15T11:50:40;34.50;;;27.30;;
66402;SDS011;53212;52.112;5.144;2023-02-15T11:55:48;39.20;;;27.90;;
66402;SDS011;53212;52.112;5.144;2023-02-15T12:01:38;38.30;;;28.10;;
66402;SDS011;53212;52.112;5.144;2023-02-15T12:12:31;38.00;;;28.70;;
66402;SDS011;53212;52.112;5.144;2023-02-15T12:15:06;37.70;;;28.50;;
66402;SDS011;53212;52.112;5.144;2023-02-15T12:17:39;35.70;;;28.30;;
66402;SDS011;53212;52.112;5.144;2023-02-15T12:20:32;37.70;;;27.80;;
66402;SDS011;53212;52.112;5.144;2023-02-15T12:23:06;36.30;;;28.50;;
66402;SDS011;53212;52.112;5.144;2023-02-15T12:25:51;38.30;;;28.20;;
66402;SDS011;53212;52.112;5.144;2023-02-15T12:28:33;34.30;;;27.40;;
66402;SDS011;53212;52.112;5.144;2023-02-15T12:31:03;39.50;;;27.80;;
66402;SDS011;53212;52.112;5.144;2023-02-15T12:33:41;41.50;;;28.70;;
66402;SDS011;53212;52.112;5.144;2023-02-15T12:36:29;37.50;;;27.40;;
66402;SDS011;53212;52.112;5.144;2023-02-15T12:39:05;41.50;;;28.10;;
66402;SDS011;53212;52.112;5.144;2023-02-15T12:41:34;39.20;;;28.20;;
66402;SDS011;53212;52.112;5.144;2023-02-15T12:44:22;40.10;;;28.10;;
66402;SDS011;53212;52.112;5.144;2023-02-15T12:47:19;40.00;;;28.60;;
66402;SDS011;53212;52.112;5.144;2023-02-15T12:50:03;39.50;;;28.90;;
66402;SDS011;53212;52.112;5.144;2023-02-15T12:52:29;39.70;;;30.60;;
66402;SDS011;53212;52.112;5.144;2023-02-15T12:54:54;40.00;;;28.70;;
66402;SDS011;53212;52.112;5.144;2023-02-15T12:57:34;40.50;;;29.70;;
66402;SDS011;53212;52.112;5.144;2023-02-15T13:00:00;41.60;;;29.80;;
66402;SDS011;53212;52.112;5.144;2023-02-15T13:02:43;38.50;;;28.40;;
66402;SDS011;53212;52.112;5.144;2023-02-15T13:05:41;40.70;;;29.00;;
66402;SDS011;53212;52.112;5.144;2023-02-15T13:08:20;40.70;;;29.80;;
66402;SDS011;53212;52.112;5.144;2023-02-15T13:11:11;40.30;;;30.30;;
66402;SDS011;53212;52.112;5.144;2023-02-15T13:13:56;39.70;;;30.00;;
66402;SDS011;53212;52.112;5.144;2023-02-15T13:16:41;42.00;;;31.60;;
66402;SDS011;53212;52.112;5.144;2023-02-15T13:19:18;40.90;;;30.70;;
66402;SDS011;53212;52.112;5.144;2023-02-15T13:21:52;37.40;;;30.40;;
66402;SDS011;53212;52.112;5.144;2023-02-15T13:24:22;39.20;;;29.80;;
66402;SDS011;53212;52.112;5.144;2023-02-15T13:29:30;39.40;;;30.30;;
66402;SDS011;53212;52.112;5.144;2023-02-15T13:32:04;42.40;;;30.40;;
66402;SDS011;53212;52.112;5.144;2023-02-15T13:34:42;37.60;;;29.80;;
66402;SDS011;53212;52.112;5.144;2023-02-15T13:40:20;43.30;;;31.00;;
66402;SDS011;53212;52.112;5.144;2023-02-15T13:42:55;39.10;;;29.50;;
66402;SDS011;53212;52.112;5.144;2023-02-15T13:45:35;40.20;;;30.00;;
66402;SDS011;53212;52.112;5.144;2023-02-15T13:55:08;41.80;;;29.80;;
66402;SDS011;53212;52.112;5.144;2023-02-15T14:00:51;37.00;;;29.70;;
66402;SDS011;53212;52.112;5.144;2023-02-15T14:10:00;40.00;;;30.30;;
66402;SDS011;53212;52.112;5.144;2023-02-15T14:12:59;40.00;;;30.00;;
66402;SDS011;53212;52.112;5.144;2023-02-15T14:22:30;37.90;;;29.30;;
66402;SDS011;53212;52.112;5.144;2023-02-15T14:28:14;40.10;;;29.30;;
66402;SDS011;53212;52.112;5.144;2023-02-15T14:30:48;39.50;;;28.30;;
66402;SDS011;53212;52.112;5.144;2023-02-15T14:33:35;38.70;;;29.60;;
66402;SDS011;53212;52.112;5.144;2023-02-15T14:36:05;33.50;;;27.40;;
66402;SDS011;53212;52.112;5.144;2023-02-15T14:41:48;39.00;;;30.80;;
66402;SDS011;53212;52.112;5.144;2023-02-15T14:44:56;39.30;;;29.10;;
66402;SDS011;53212;52.112;5.144;2023-02-15T14:47:36;37.50;;;29.80;;
66402;SDS011;53212;52.112;5.144;2023-02-15T14:53:32;40.90;;;29.90;;
66402;SDS011;53212;52.112;5.144;2023-02-15T15:01:29;42.20;;;29.40;;
66402;SDS011;53212;52.112;5.144;2023-02-15T15:03:59;42.10;;;29.90;;
66402;SDS011;53212;52.112;5.144;2023-02-15T15:06:36;37.30;;;29.30;;
66402;SDS011;53212;52.112;5.144;2023-02-15T15:09:27;36.70;;;29.10;;
66402;SDS011;53212;52.112;5.144;2023-02-15T15:11:56;40.60;;;30.50;;
66402;SDS011;53212;52.112;5.144;2023-02-15T15:14:47;39.80;;;30.50;;
66402;SDS011;53212;52.112;5.144;2023-02-15T15:22:50;41.90;;;31.20;;
66402;SDS011;53212;52.112;5.144;2023-02-15T15:25:49;41.10;;;31.90;;
66402;SDS011;53212;52.112;5.144;2023-02-15T15:37:46;39.90;;;31.00;;
66402;SDS011;53212;52.112;5.144;2023-02-15T15:49:10;41.80;;;32.20;;
66402;SDS011;53212;52.112;5.144;2023-02-15T15:51:41;47.50;;;34.20;;
66402;SDS011;53212;52.112;5.144;2023-02-15T15:54:16;42.50;;;32.40;;
66402;SDS011;53212;52.112;5.144;2023-02-15T15:56:49;41.10;;;31.10;;
66402;SDS011;53212;52.112;5.144;2023-02-15T15:59:24;40.90;;;32.00;;
66402;SDS011;53212;52.112;5.144;2023-02-15T16:01:51;42.20;;;32.90;;
66402;SDS011;53212;52.112;5.144;2023-02-15T16:04:28;45.40;;;32.90;;
66402;SDS011;53212;52.112;5.144;2023-02-15T16:06:57;38.00;;;31.00;;
66402;SDS011;53212;52.112;5.144;2023-02-15T16:10:06;40.60;;;30.80;;
66402;SDS011;53212;52.112;5.144;2023-02-15T16:12:46;45.60;;;33.90;;
66402;SDS011;53212;52.112;5.144;2023-02-15T16:17:47;42.90;;;33.20;;
66402;SDS011;53212;52.112;5.144;2023-02-15T16:20:21;44.90;;;33.70;;
66402;SDS011;53212;52.112;5.144;2023-02-15T16:22:49;43.60;;;30.90;;
66402;SDS011;53212;52.112;5.144;2023-02-15T16:28:24;43.70;;;32.30;;
66402;SDS011;53212;52.112;5.144;2023-02-15T16:31:13;46.40;;;33.10;;
66402;SDS011;53212;52.112;5.144;2023-02-15T16:33:41;48.00;;;34.30;;
66402;SDS011;53212;52.112;5.144;2023-02-15T16:36:22;44.20;;;32.30;;
66402;SDS011;53212;52.112;5.144;2023-02-15T16:39:05;42.00;;;32.60;;
66402;SDS011;53212;52.112;5.144;2023-02-15T16:41:33;41.30;;;30.40;;
66402;SDS011;53212;52.112;5.144;2023-02-15T16:44:03;44.30;;;31.30;;
66402;SDS011;53212;52.112;5.144;2023-02-15T16:46:40;98.50;;;56.00;;
66402;SDS011;53212;52.112;5.144;2023-02-15T16:49:28;54.10;;;36.20;;
66402;SDS011;53212;52.112;5.144;2023-02-15T16:51:59;40.40;;;26.40;;
66402;SDS011;53212;52.112;5.144;2023-02-15T16:54:34;34.50;;;24.10;;
66402;SDS011;53212;52.112;5.144;2023-02-15T16:57:00;35.90;;;25.30;;
66402;SDS011;53212;52.112;5.144;2023-02-15T17:01:58;42.10;;;26.80;;
66402;SDS011;53212;52.112;5.144;2023-02-15T17:04:26;39.10;;;26.60;;
66402;SDS011;53212;52.112;5.144;2023-02-15T17:07:04;36.80;;;27.30;;
66402;SDS011;53212;52.112;5.144;2023-02-15T17:09:31;40.40;;;30.70;;
66402;SDS011;53212;52.112;5.144;2023-02-15T17:11:57;43.40;;;30.50;;
66402;SDS011;53212;52.112;5.144;2023-02-15T17:14:31;44.80;;;31.20;;
66402;SDS011;53212;52.112;5.144;2023-02-15T17:17:14;44.70;;;31.60;;
66402;SDS011;53212;52.112;5.144;2023-02-15T17:19:51;44.30;;;31.20;;
66402;SDS011;53212;52.112;5.144;2023-02-15T17:22:24;47.90;;;33.00;;
66402;SDS011;53212;52.112;5.144;2023-02-15T17:25:01;45.70;;;32.30;;
66402;SDS011;53212;52.112;5.144;2023-02-15T17:27:29;45.30;;;31.90;;
66402;SDS011;53212;52.112;5.144;2023-02-15T17:30:03;42.80;;;32.00;;
66402;SDS011;53212;52.112;5.144;2023-02-15T17:32:59;43.20;;;33.20;;
66402;SDS011;53212;52.112;5.144;2023-02-15T17:35:28;47.90;;;35.10;;
66402;SDS011;53212;52.112;5.144;2023-02-15T17:38:27;47.90;;;34.10;;
66402;SDS011;53212;52.112;5.144;2023-02-15T17:40:52;47.80;;;35.40;;
66402;SDS011;53212;52.112;5.144;2023-02-15T17:43:17;49.90;;;34.30;;
66402;SDS011;53212;52.112;5.144;2023-02-15T17:45:52;47.40;;;34.70;;
66402;SDS011;53212;52.112;5.144;2023-02-15T17:48:20;45.60;;;32.70;;
66402;SDS011;53212;52.112;5.144;2023-02-15T17:50:47;47.70;;;33.60;;
66402;SDS011;53212;52.112;5.144;2023-02-15T17:53:15;53.90;;;34.00;;
66402;SDS011;53212;52.112;5.144;2023-02-15T17:55:42;49.70;;;36.10;;
66402;SDS011;53212;52.112;5.144;2023-02-15T17:58:16;46.10;;;33.90;;
66402;SDS011;53212;52.112;5.144;2023-02-15T18:00:48;48.90;;;36.60;;
66402;SDS011;53212;52.112;5.144;2023-02-15T18:06:30;50.20;;;34.20;;
66402;SDS011;53212;52.112;5.144;2023-02-15T18:09:18;45.60;;;33.70;;